Time;durP1;ratioP1;P1;durP2;ratioP2;P2;SDS_P1;SDS_P2;PMS_P1;PMS_P2;Temp;Humidity;BMP_temperature;BMP_pressure;BME280_temperature;BME280_humidity;BME280_pressure;Samples;Min_cycle;Max_cycle;Signal;HPM_P1;HPM_P2
2024/03/25 00:01:58;;;;;;;16.40;12.60;;;;;;;5.84;61.44;98881.32;111114;1253;21952;-64
2024/03/25 00:04:27;;;;;;;14.00;10.80;;;;;;;5.86;61.36;98881.88;111117;1253;22110;-65
2024/03/25 00:06:56;;;;;;;16.40;12.70;;;;;;;5.85;61.48;98881.56;111101;1253;21955;-65
2024/03/25 00:09:25;;;;;;;14.40;12.20;;;;;;;5.84;61.48;98879.39;111104;1253;21955;-67
2024/03/25 00:11:54;;;;;;;14.70;11.60;;;;;;;5.84;61.33;98876.55;111123;1253;21957;-67
2024/03/25 00:14:23;;;;;;;18.00;14.40;;;;;;;5.84;61.40;98876.92;111151;1253;21955;-64
2024/03/25 00:16:52;;;;;;;16.30;12.10;;;;;;;5.82;61.75;98875.31;111136;1253;21955;-66
2024/03/25 00:19:21;;;;;;;14.10;11.80;;;;;;;5.81;61.51;98874.52;111116;1253;21963;-64
2024/03/25 00:21:50;;;;;;;16.50;11.60;;;;;;;5.79;61.58;98875.21;111131;1253;21955;-65
2024/03/25 00:24:19;;;;;;;13.70;10.80;;;;;;;5.76;62.12;98877.52;111125;1253;21952;-65
2024/03/25 00:26:48;;;;;;;16.80;11.30;;;;;;;5.75;62.17;98873.76;111138;1253;21982;-65
2024/03/25 00:29:17;;;;;;;16.00;12.70;;;;;;;5.76;62.14;98874.21;111121;1253;21952;-65
2024/03/25 00:31:46;;;;;;;16.30;11.40;;;;;;;5.78;62.18;98871.23;111107;1253;21955;-66
2024/03/25 00:34:15;;;;;;;14.90;12.00;;;;;;;5.79;61.99;98871.17;111157;1253;21954;-66
2024/03/25 00:36:44;;;;;;;18.60;12.80;;;;;;;5.77;61.46;98867.46;111069;1253;22010;-65
2024/03/25 00:39:13;;;;;;;16.50;11.60;;;;;;;5.75;61.72;98863.27;111077;1253;21957;-65
2024/03/25 00:41:42;;;;;;;17.90;12.40;;;;;;;5.75;62.05;98860.13;111137;1253;23034;-65
2024/03/25 00:44:11;;;;;;;19.40;13.60;;;;;;;5.78;62.46;98859.75;111109;1253;21955;-69
2024/03/25 00:46:41;;;;;;;12.90;10.70;;;;;;;5.78;62.39;98862.84;111199;1253;21971;-66
2024/03/25 00:49:10;;;;;;;17.50;12.60;;;;;;;5.77;62.52;98860.67;111095;1253;21956;-66
2024/03/25 00:51:39;;;;;;;17.10;13.50;;;;;;;5.74;62.84;98854.95;111195;1253;21957;-67
2024/03/25 00:54:08;;;;;;;17.40;11.90;;;;;;;5.73;62.65;98855.02;111128;1253;21953;-66
2024/03/25 00:56:37;;;;;;;16.60;12.10;;;;;;;5.72;62.62;98853.17;111119;1253;23693;-66
2024/03/25 00:59:06;;;;;;;14.90;11.70;;;;;;;5.70;62.67;98856.30;111141;1253;23602;-67
2024/03/25 01:01:38;;;;;;;14.20;11.50;;;;;;;5.71;63.01;98854.67;111207;1253;21975;-66
2024/03/25 01:04:07;;;;;;;16.40;12.30;;;;;;;5.73;62.81;98854.16;111073;1253;21944;-66
2024/03/25 01:06:36;;;;;;;17.10;12.30;;;;;;;5.74;63.10;98850.79;111124;1253;21951;-66
2024/03/25 01:09:07;;;;;;;14.70;10.70;;;;;;;5.77;62.96;98852.11;111144;1253;21965;-67
2024/03/25 01:11:36;;;;;;;12.50;10.00;;;;;;;5.80;62.87;98852.26;111163;1251;21987;-69
2024/03/25 01:14:05;;;;;;;12.30;10.20;;;;;;;5.82;63.08;98853.17;111136;1253;22024;-67
2024/03/25 01:16:34;;;;;;;10.80;9.10;;;;;;;5.83;62.77;98851.36;111121;1253;21958;-66
2024/03/25 01:19:03;;;;;;;10.90;9.00;;;;;;;5.83;62.75;98848.69;111131;1253;21966;-70
2024/03/25 01:21:32;;;;;;;12.50;9.30;;;;;;;5.84;62.68;98852.28;111107;1253;21964;-67
2024/03/25 01:24:01;;;;;;;12.10;9.60;;;;;;;5.82;62.77;98850.19;111062;1251;21952;-66
2024/03/25 01:26:30;;;;;;;13.80;8.80;;;;;;;5.82;62.93;98851.02;111226;1253;23676;-66
2024/03/25 01:28:59;;;;;;;11.80;9.60;;;;;;;5.82;62.71;98852.12;111110;1253;21957;-66
2024/03/25 01:31:28;;;;;;;12.20;9.30;;;;;;;5.80;62.84;98853.11;111092;1253;21951;-66
2024/03/25 01:33:57;;;;;;;12.60;9.60;;;;;;;5.78;63.04;98853.27;111118;1253;23133;-68
2024/03/25 01:36:26;;;;;;;12.90;8.80;;;;;;;5.79;62.92;98848.67;111099;1253;21953;-66
2024/03/25 01:38:55;;;;;;;13.00;9.60;;;;;;;5.81;63.28;98847.66;111169;1251;21966;-66
2024/03/25 01:41:24;;;;;;;12.10;9.90;;;;;;;5.82;63.20;98845.28;111104;1253;21966;-66
2024/03/25 01:43:53;;;;;;;13.40;10.00;;;;;;;5.81;63.38;98840.66;111160;1253;21953;-68
2024/03/25 01:46:22;;;;;;;10.70;8.30;;;;;;;5.80;63.37;98840.20;111066;1253;21967;-65
2024/03/25 01:48:53;;;;;;;13.80;9.80;;;;;;;5.79;63.42;98842.02;111090;1253;21955;-67
2024/03/25 01:51:23;;;;;;;11.30;9.80;;;;;;;5.80;63.53;98837.96;111179;1253;21953;-66
2024/03/25 01:53:54;;;;;;;10.60;9.30;;;;;;;5.80;63.44;98839.17;111071;1248;23563;-66
2024/03/25 01:56:24;;;;;;;11.40;9.40;;;;;;;5.79;63.84;98836.27;111097;1253;21940;-65
2024/03/25 01:58:53;;;;;;;13.20;10.10;;;;;;;5.80;63.52;98835.98;111097;1253;21960;-65
2024/03/25 02:01:22;;;;;;;13.60;10.20;;;;;;;5.81;63.76;98840.29;111177;1253;23618;-67
2024/03/25 02:03:54;;;;;;;14.40;10.90;;;;;;;5.81;63.89;98838.56;111069;1253;21960;-66
2024/03/25 02:06:25;;;;;;;11.30;9.80;;;;;;;5.79;64.00;98835.91;111180;1253;23570;-66
2024/03/25 02:08:56;;;;;;;11.20;10.10;;;;;;;5.76;63.81;98830.73;111067;1253;21952;-68
2024/03/25 02:11:27;;;;;;;11.00;9.90;;;;;;;5.72;63.96;98834.16;111184;1253;23465;-66
2024/03/25 02:13:56;;;;;;;11.90;10.20;;;;;;;5.73;64.42;98831.67;111155;1253;22128;-65
2024/03/25 02:16:25;;;;;;;13.40;12.10;;;;;;;5.74;64.02;98832.77;111100;1253;22052;-66
2024/03/25 02:18:54;;;;;;;18.20;14.90;;;;;;;5.69;64.46;98832.14;111163;1253;21955;-68
2024/03/25 02:21:23;;;;;;;22.20;18.10;;;;;;;5.63;64.63;98833.12;111195;1253;21961;-66
2024/03/25 02:23:59;;;;;;;26.10;23.40;;;;;;;5.59;64.64;98829.92;111443;1253;21963;-64
2024/03/25 02:26:30;;;;;;;31.20;28.40;;;;;;;5.55;64.65;98831.05;112417;1253;22027;-64
2024/03/25 02:28:59;;;;;;;35.70;32.20;;;;;;;5.56;64.73;98834.66;111892;1253;22161;-66
2024/03/25 02:31:28;;;;;;;36.30;33.00;;;;;;;5.57;64.71;98829.17;111140;1253;21996;-68
2024/03/25 02:33:57;;;;;;;36.60;33.20;;;;;;;5.59;64.26;98832.67;111087;1253;21961;-67
2024/03/25 02:36:26;;;;;;;36.80;33.20;;;;;;;5.57;64.47;98833.92;111144;1253;21943;-66
2024/03/25 02:38:55;;;;;;;36.80;33.40;;;;;;;5.56;64.69;98838.30;111126;1253;21958;-66
2024/03/25 02:41:24;;;;;;;35.20;31.70;;;;;;;5.56;64.92;98840.54;111098;1253;22064;-68
2024/03/25 02:43:53;;;;;;;29.40;26.60;;;;;;;5.55;65.00;98839.27;111113;1253;21965;-67
2024/03/25 02:46:23;;;;;;;28.50;25.70;;;;;;;5.54;64.93;98839.70;111112;1253;21958;-67
2024/03/25 02:48:51;;;;;;;22.60;20.30;;;;;;;5.54;65.22;98840.55;111234;1253;21962;-66
2024/03/25 02:51:21;;;;;;;17.00;15.30;;;;;;;5.57;65.27;98840.50;111065;1253;22929;-67
2024/03/25 02:53:50;;;;;;;14.50;13.10;;;;;;;5.60;64.96;98845.22;111078;1253;23595;-65
2024/03/25 02:56:19;;;;;;;13.50;12.00;;;;;;;5.59;65.29;98847.36;111095;1253;21968;-67
2024/03/25 02:58:48;;;;;;;16.30;13.00;;;;;;;5.59;65.54;98844.95;111256;1253;21956;-66
2024/03/25 03:01:17;;;;;;;11.50;10.30;;;;;;;5.61;65.41;98843.40;111119;1253;24302;-67
2024/03/25 03:03:45;;;;;;;11.10;9.90;;;;;;;5.63;65.21;98845.29;111173;1253;21949;-68
2024/03/25 03:06:14;;;;;;;10.00;9.10;;;;;;;5.65;65.13;98848.33;111116;1253;21961;-67
2024/03/25 03:08:43;;;;;;;10.30;9.00;;;;;;;5.67;65.55;98849.23;111169;1253;21952;-68
2024/03/25 03:11:12;;;;;;;11.20;10.00;;;;;;;5.66;65.92;98845.96;111191;1253;21954;-66
2024/03/25 03:13:40;;;;;;;10.90;9.60;;;;;;;5.65;66.03;98848.15;111080;1253;22727;-66
2024/03/25 03:16:09;;;;;;;9.40;8.40;;;;;;;5.64;66.12;98849.81;111106;1253;21953;-66
2024/03/25 03:18:40;;;;;;;10.40;9.30;;;;;;;5.64;66.08;98851.89;111058;1253;22417;-65
2024/03/25 03:21:08;;;;;;;11.60;9.80;;;;;;;5.66;66.47;98847.05;111118;1253;21961;-65
2024/03/25 03:23:37;;;;;;;10.70;9.70;;;;;;;5.68;66.84;98850.89;111118;1253;21971;-65
2024/03/25 03:26:07;;;;;;;10.50;9.30;;;;;;;5.70;66.92;98852.67;111178;1253;23413;-65
2024/03/25 03:28:36;;;;;;;10.00;8.30;;;;;;;5.72;66.77;98852.30;111099;1253;21956;-67
2024/03/25 03:31:05;;;;;;;10.90;8.70;;;;;;;5.73;67.02;98850.01;111121;1253;22680;-66
2024/03/25 03:33:34;;;;;;;9.20;8.30;;;;;;;5.74;67.14;98849.92;111155;1253;21992;-66
2024/03/25 03:36:03;;;;;;;9.00;8.10;;;;;;;5.73;67.54;98849.42;111142;1253;22486;-67
2024/03/25 03:38:32;;;;;;;9.50;8.10;;;;;;;5.73;67.48;98851.37;111050;1240;23752;-65
2024/03/25 03:41:03;;;;;;;8.90;8.10;;;;;;;5.72;67.80;98852.48;111105;1253;21955;-65
2024/03/25 03:43:32;;;;;;;9.80;7.80;;;;;;;5.70;67.87;98848.83;111174;1253;22053;-67
2024/03/25 03:46:01;;;;;;;8.30;7.50;;;;;;;5.68;68.02;98850.38;111080;1253;21952;-67
2024/03/25 03:48:31;;;;;;;8.90;7.60;;;;;;;5.69;67.90;98852.74;111143;1253;21969;-65
2024/03/25 03:51:00;;;;;;;8.00;7.20;;;;;;;5.71;68.10;98856.58;111088;1253;21962;-66
2024/03/25 03:53:29;;;;;;;9.20;7.70;;;;;;;5.71;67.95;98856.25;111108;1253;21964;-67
2024/03/25 03:56:01;;;;;;;8.40;7.60;;;;;;;5.68;68.42;98857.38;111113;1253;21953;-64
2024/03/25 03:58:30;;;;;;;8.10;7.30;;;;;;;5.67;68.54;98858.61;111094;1253;23676;-66
2024/03/25 04:01:00;;;;;;;7.90;7.20;;;;;;;5.69;68.51;98855.38;111095;1253;21955;-66
2024/03/25 04:03:29;;;;;;;7.80;7.10;;;;;;;5.68;68.70;98857.86;111110;1253;23022;-67
2024/03/25 04:05:58;;;;;;;7.30;6.60;;;;;;;5.67;68.89;98858.83;111116;1253;23774;-65
2024/03/25 04:08:28;;;;;;;7.70;6.90;;;;;;;5.64;68.99;98857.67;111049;1253;22024;-65
2024/03/25 04:11:01;;;;;;;7.30;6.20;;;;;;;5.59;69.01;98856.63;111088;1253;21957;-66
2024/03/25 04:13:30;;;;;;;8.40;6.70;;;;;;;5.56;69.32;98856.69;111143;1253;22114;-66
2024/03/25 04:16:04;;;;;;;7.70;6.80;;;;;;;5.57;69.40;98859.02;111122;1253;21955;-66
2024/03/25 04:18:33;;;;;;;7.90;6.30;;;;;;;5.57;69.49;98857.27;111126;1253;21954;-67
2024/03/25 04:21:02;;;;;;;7.70;7.00;;;;;;;5.56;69.71;98858.37;111161;1253;23055;-67
2024/03/25 04:23:31;;;;;;;8.00;7.20;;;;;;;5.47;70.34;98862.35;111208;1253;21952;-67
2024/03/25 04:26:02;;;;;;;7.90;7.20;;;;;;;5.37;70.46;98860.64;111133;1253;22926;-68
2024/03/25 04:28:31;;;;;;;8.50;7.70;;;;;;;5.31;70.38;98862.48;111071;1253;21967;-67
2024/03/25 04:30:59;;;;;;;8.90;8.10;;;;;;;5.29;70.79;98864.54;111049;1253;22034;-66
2024/03/25 04:33:28;;;;;;;8.30;7.50;;;;;;;5.28;71.15;98866.36;111101;1253;21955;-68
2024/03/25 04:35:57;;;;;;;9.20;8.40;;;;;;;5.25;71.08;98865.19;111200;1253;21962;-68
2024/03/25 04:38:26;;;;;;;9.60;8.80;;;;;;;5.21;71.31;98871.02;111114;1253;21951;-68
2024/03/25 04:40:55;;;;;;;14.30;11.70;;;;;;;5.18;71.62;98871.10;111040;1253;23572;-66
2024/03/25 04:43:24;;;;;;;11.60;10.40;;;;;;;5.16;71.84;98874.19;111167;1253;21955;-67
2024/03/25 04:45:52;;;;;;;22.10;19.40;;;;;;;5.13;71.77;98873.54;111107;1253;23563;-67
2024/03/25 04:48:21;;;;;;;12.20;11.00;;;;;;;5.13;71.90;98872.30;111152;1253;21989;-68
2024/03/25 04:50:50;;;;;;;12.10;10.90;;;;;;;5.16;72.17;98869.02;111124;1253;21956;-67
2024/03/25 04:53:19;;;;;;;11.10;10.00;;;;;;;5.16;71.80;98871.44;111144;1253;22061;-67
2024/03/25 04:55:48;;;;;;;10.40;9.40;;;;;;;5.14;72.03;98871.42;111091;1253;21961;-67
2024/03/25 04:58:17;;;;;;;13.30;12.00;;;;;;;5.09;71.89;98874.18;111194;1253;21935;-66
2024/03/25 05:00:46;;;;;;;15.80;14.30;;;;;;;5.10;71.94;98874.65;111190;1253;21955;-68
2024/03/25 05:03:14;;;;;;;8.30;7.60;;;;;;;5.16;71.82;98876.30;111099;1253;21951;-67
2024/03/25 05:05:43;;;;;;;8.80;7.90;;;;;;;5.21;71.70;98880.64;111109;1242;23124;-67
2024/03/25 05:08:12;;;;;;;10.90;9.70;;;;;;;5.23;71.70;98878.95;111038;1253;21957;-65
2024/03/25 05:10:41;;;;;;;8.60;7.80;;;;;;;5.23;71.72;98881.05;111184;1253;21955;-66
2024/03/25 05:13:10;;;;;;;9.80;8.20;;;;;;;5.24;72.04;98879.01;111144;1253;21956;-66
2024/03/25 05:15:39;;;;;;;8.60;7.80;;;;;;;5.27;72.33;98881.95;111061;1253;21947;-64
2024/03/25 05:18:08;;;;;;;8.00;7.30;;;;;;;5.32;72.06;98885.79;111134;1253;22243;-64
2024/03/25 05:20:40;;;;;;;8.50;7.70;;;;;;;5.32;72.27;98888.04;111158;1253;21969;-65
2024/03/25 05:23:09;;;;;;;8.20;7.50;;;;;;;5.28;72.13;98889.22;110954;1253;21941;-67
2024/03/25 05:25:38;;;;;;;9.50;8.50;;;;;;;5.21;72.26;98890.93;111206;1253;21968;-68
2024/03/25 05:28:07;;;;;;;8.70;7.90;;;;;;;5.19;72.33;98893.36;111252;1253;21956;-66
2024/03/25 05:30:38;;;;;;;9.00;8.20;;;;;;;5.21;72.40;98892.67;111209;1253;21958;-68
2024/03/25 05:33:07;;;;;;;9.40;8.50;;;;;;;5.29;72.62;98895.09;111118;1253;21955;-66
2024/03/25 05:35:36;;;;;;;8.40;7.80;;;;;;;5.37;72.54;98896.77;111200;1253;21956;-67
2024/03/25 05:38:05;;;;;;;8.10;7.30;;;;;;;5.41;72.22;98896.34;111086;1253;21956;-67
2024/03/25 05:40:34;;;;;;;9.00;8.20;;;;;;;5.36;72.30;98899.95;111198;1253;21955;-68
2024/03/25 05:43:03;;;;;;;9.20;8.40;;;;;;;5.32;72.59;98901.19;111196;1253;22270;-71
2024/03/25 05:45:31;;;;;;;18.90;14.30;;;;;;;5.29;72.76;98901.91;111220;1253;21971;-67
2024/03/25 05:48:00;;;;;;;12.60;11.40;;;;;;;5.27;72.95;98902.89;111141;1253;21972;-67
2024/03/25 05:50:29;;;;;;;35.30;27.40;;;;;;;5.24;72.84;98904.48;111089;1253;21965;-69
2024/03/25 05:52:58;;;;;;;16.10;14.40;;;;;;;5.25;72.81;98904.77;111210;1253;21954;-68
2024/03/25 05:55:27;;;;;;;14.60;13.40;;;;;;;5.28;73.14;98907.00;111171;1253;21944;-67
2024/03/25 05:57:55;;;;;;;11.20;10.10;;;;;;;5.32;73.19;98909.05;111190;1253;21960;-67
2024/03/25 06:00:24;;;;;;;10.50;9.40;;;;;;;5.33;72.90;98913.27;111176;1253;21992;-68
2024/03/25 06:02:55;;;;;;;10.50;9.50;;;;;;;5.40;73.03;98916.30;111113;1253;23093;-67
2024/03/25 06:05:24;;;;;;;11.70;10.60;;;;;;;5.45;72.97;98916.77;111184;1253;22047;-68
2024/03/25 06:07:53;;;;;;;13.00;11.30;;;;;;;5.47;72.94;98919.63;111182;1253;21953;-67
2024/03/25 06:10:21;;;;;;;10.50;9.60;;;;;;;5.47;73.07;98917.70;111113;1253;21939;-67
2024/03/25 06:12:50;;;;;;;9.90;9.00;;;;;;;5.51;72.97;98923.38;111203;1253;22422;-67
2024/03/25 06:15:19;;;;;;;10.10;9.20;;;;;;;5.50;73.12;98926.23;111108;1253;21965;-67
2024/03/25 06:17:48;;;;;;;10.80;9.30;;;;;;;5.53;73.04;98931.03;111203;1253;21960;-67
2024/03/25 06:20:17;;;;;;;9.70;8.70;;;;;;;5.59;73.02;98935.86;111145;1253;21955;-69
2024/03/25 06:22:45;;;;;;;10.30;8.90;;;;;;;5.63;72.91;98936.29;111229;1253;21971;-69
2024/03/25 06:25:14;;;;;;;8.40;7.70;;;;;;;5.66;72.56;98941.50;111216;1253;23103;-66
2024/03/25 06:27:43;;;;;;;9.20;8.40;;;;;;;5.63;72.63;98943.23;111211;1253;22035;-68
2024/03/25 06:35:47;;;;;;;12.90;11.70;;;;;;;5.64;72.87;98942.52;111099;1253;21964;-66
2024/03/25 06:38:18;;;;;;;10.90;9.90;;;;;;;5.70;72.86;98942.90;111076;1253;21955;-68
2024/03/25 06:40:47;;;;;;;14.60;13.10;;;;;;;5.77;72.70;98944.84;111154;1253;21955;-67
2024/03/25 06:43:18;;;;;;;14.70;13.20;;;;;;;5.82;72.80;98940.81;111142;1253;22063;-67
2024/03/25 06:45:47;;;;;;;14.80;13.50;;;;;;;5.89;72.62;98944.20;111193;1253;21954;-67
2024/03/25 06:48:16;;;;;;;16.20;14.70;;;;;;;5.95;72.38;98949.35;111201;1253;23014;-66
2024/03/25 06:50:59;;;;;;;14.40;13.10;;;;;;;6.06;72.42;98951.48;111146;1253;21961;-66
2024/03/25 06:53:28;;;;;;;17.70;16.20;;;;;;;6.20;72.49;98961.45;111202;1253;21996;-66
2024/03/25 06:56:01;;;;;;;17.50;16.00;;;;;;;6.37;72.28;98961.78;111155;1253;21958;-67
2024/03/25 06:58:30;;;;;;;16.90;15.40;;;;;;;6.52;71.93;98964.66;111094;1253;22735;-66
2024/03/25 07:01:07;;;;;;;13.40;12.20;;;;;;;6.61;71.73;98967.86;111143;1253;21968;-67
2024/03/25 07:03:36;;;;;;;11.60;10.50;;;;;;;6.70;71.82;98967.31;111145;1253;23580;-69
2024/03/25 07:06:05;;;;;;;12.20;11.10;;;;;;;6.82;71.22;98973.09;111104;1253;22059;-66
2024/03/25 07:08:34;;;;;;;13.10;11.80;;;;;;;6.94;71.27;98974.04;111074;1253;23673;-66
2024/03/25 07:11:03;;;;;;;9.90;9.00;;;;;;;7.15;70.81;98978.73;111112;1253;21964;-66
2024/03/25 07:13:33;;;;;;;11.50;10.00;;;;;;;7.34;70.56;98982.98;111154;1253;21957;-67
2024/03/25 07:16:05;;;;;;;10.40;9.50;;;;;;;7.52;70.04;98981.10;111104;1253;21968;-66
2024/03/25 07:18:34;;;;;;;8.50;7.70;;;;;;;7.65;69.57;98980.97;111067;1253;21931;-66
2024/03/25 07:21:03;;;;;;;8.90;8.00;;;;;;;7.70;68.94;98985.04;111083;1253;21955;-68
2024/03/25 07:23:32;;;;;;;7.70;6.90;;;;;;;7.72;68.88;98988.40;111114;1253;22081;-67
2024/03/25 07:26:01;;;;;;;6.30;5.80;;;;;;;7.70;68.41;98989.13;111167;1253;21958;-69
2024/03/25 07:28:29;;;;;;;6.10;5.50;;;;;;;7.60;68.24;98990.63;111185;1253;23675;-67
2024/03/25 07:31:00;;;;;;;6.80;6.20;;;;;;;7.49;68.50;98999.52;111196;1253;22028;-66
2024/03/25 07:33:29;;;;;;;7.60;6.90;;;;;;;7.44;68.70;98999.34;111100;1253;24380;-66
2024/03/25 07:35:57;;;;;;;9.20;7.40;;;;;;;7.47;68.82;98997.70;111126;1253;21943;-67
2024/03/25 07:38:26;;;;;;;9.60;8.70;;;;;;;7.56;68.94;98997.95;111209;1253;21966;-67
2024/03/25 07:40:55;;;;;;;9.90;9.00;;;;;;;7.68;69.17;98997.48;111170;1253;21963;-67
2024/03/25 07:43:24;;;;;;;9.00;8.10;;;;;;;7.79;68.67;99001.01;111097;1253;23196;-71
2024/03/25 07:45:53;;;;;;;10.10;9.20;;;;;;;7.80;68.27;98999.51;111250;1253;21958;-65
2024/03/25 07:48:21;;;;;;;10.90;10.00;;;;;;;7.77;68.46;99006.58;111391;1253;21931;-66
2024/03/25 07:50:50;;;;;;;9.20;8.40;;;;;;;7.75;68.61;99009.88;111201;1253;22421;-67
2024/03/25 07:53:19;;;;;;;11.10;10.10;;;;;;;7.73;68.70;99019.34;111120;1253;21955;-67
2024/03/25 07:55:48;;;;;;;10.80;9.60;;;;;;;7.74;68.71;99021.34;111175;1253;22994;-67
2024/03/25 07:58:17;;;;;;;8.50;7.80;;;;;;;7.73;68.63;99020.23;111057;1253;23081;-67
2024/03/25 08:00:46;;;;;;;8.20;6.10;;;;;;;7.68;68.53;99020.14;111117;1253;23866;-70
2024/03/25 08:03:15;;;;;;;8.10;7.40;;;;;;;7.62;68.68;99026.17;111076;1253;21986;-68
2024/03/25 08:05:44;;;;;;;7.60;6.90;;;;;;;7.66;69.08;99027.27;111199;1253;22421;-68
2024/03/25 08:08:13;;;;;;;8.00;7.00;;;;;;;7.76;68.76;99027.35;111223;1253;21925;-67
2024/03/25 08:10:41;;;;;;;8.50;7.80;;;;;;;7.86;68.69;99031.96;111243;1253;21965;-67
2024/03/25 08:13:10;;;;;;;8.20;7.40;;;;;;;7.91;68.34;99034.39;111146;1248;21959;-66
2024/03/25 08:15:41;;;;;;;8.10;7.30;;;;;;;7.92;68.42;99035.54;111171;1253;21962;-68
2024/03/25 08:18:10;;;;;;;7.70;7.00;;;;;;;7.95;68.46;99040.21;111158;1253;23595;-67
2024/03/25 08:20:39;;;;;;;8.50;7.70;;;;;;;7.97;68.10;99039.63;111106;1253;21962;-67
2024/03/25 08:23:08;;;;;;;7.00;6.30;;;;;;;7.92;68.01;99041.42;110596;1259;23678;-67
2024/03/25 08:25:37;;;;;;;7.90;6.90;;;;;;;7.89;68.01;99047.30;110679;1259;22482;-67
2024/03/25 08:28:07;;;;;;;6.20;5.60;;;;;;;7.89;68.09;99050.64;110610;1259;22136;-68
2024/03/25 08:30:36;;;;;;;5.20;4.70;;;;;;;7.92;68.03;99053.73;110599;1259;21969;-67
2024/03/25 08:33:05;;;;;;;4.70;4.30;;;;;;;8.07;68.14;99055.19;110546;1259;21960;-69
2024/03/25 08:35:34;;;;;;;3.70;3.30;;;;;;;8.53;67.70;99053.23;110587;1259;23113;-67
2024/03/25 08:38:03;;;;;;;4.60;4.20;;;;;;;9.01;65.87;99053.62;110653;1259;21965;-68
2024/03/25 08:40:32;;;;;;;4.40;3.70;;;;;;;9.23;64.76;99056.80;110729;1247;23028;-66
2024/03/25 08:43:01;;;;;;;4.80;3.60;;;;;;;9.26;64.02;99055.85;110610;1259;22036;-66
2024/03/25 08:45:30;;;;;;;2.70;2.20;;;;;;;9.21;63.54;99056.50;110576;1259;21950;-66
2024/03/25 08:47:59;;;;;;;3.20;2.70;;;;;;;9.11;63.31;99059.92;110819;1253;21945;-65
2024/03/25 08:50:28;;;;;;;7.80;5.30;;;;;;;9.07;63.35;99064.16;111157;1253;23583;-65
2024/03/25 08:52:57;;;;;;;3.60;3.30;;;;;;;9.09;63.75;99068.73;111139;1253;21986;-65
2024/03/25 08:55:27;;;;;;;4.10;3.40;;;;;;;9.29;63.80;99072.11;111033;1253;21993;-64
2024/03/25 08:58:00;;;;;;;3.70;3.30;;;;;;;9.52;63.72;99077.20;111109;1253;21942;-66
2024/03/25 09:00:29;;;;;;;3.10;2.80;;;;;;;10.03;62.51;99075.17;111077;1253;21960;-64
2024/03/25 09:02:58;;;;;;;3.70;3.40;;;;;;;10.43;61.19;99076.02;111123;1253;21947;-67
2024/03/25 09:05:27;;;;;;;5.30;4.80;;;;;;;10.52;59.92;99074.01;111116;1253;23673;-65
2024/03/25 09:07:58;;;;;;;6.10;5.00;;;;;;;10.50;59.26;99074.92;111000;1253;23727;-65
2024/03/25 09:13:18;;;;;;;5.70;5.00;;;;;;;10.17;59.39;99086.66;111120;1253;21964;-66
2024/03/25 09:15:47;;;;;;;6.30;5.50;;;;;;;10.02;59.55;99089.02;111152;1253;21965;-66
2024/03/25 09:18:16;;;;;;;4.20;3.60;;;;;;;9.91;59.82;99094.86;111109;1253;21959;-65
2024/03/25 09:20:46;;;;;;;4.90;4.40;;;;;;;9.79;59.87;99097.73;111126;1253;23014;-66
2024/03/25 09:23:15;;;;;;;6.70;5.90;;;;;;;9.72;60.50;99102.39;111133;1253;21962;-64
2024/03/25 09:25:53;;;;;;;9.10;6.40;;;;;;;9.62;60.03;99104.46;111125;1253;22023;-68
2024/03/25 09:28:22;;;;;;;5.60;3.60;;;;;;;9.49;60.39;99106.81;111099;1253;22181;-65
2024/03/25 09:30:51;;;;;;;4.80;3.20;;;;;;;9.51;60.92;99110.70;111064;1253;23574;-64
2024/03/25 09:33:19;;;;;;;5.70;4.20;;;;;;;9.60;60.42;99109.39;111081;1253;21960;-65
2024/03/25 09:35:48;;;;;;;12.60;4.30;;;;;;;9.65;60.20;99111.00;111040;1253;21950;-64
2024/03/25 09:38:17;;;;;;;6.10;5.10;;;;;;;9.78;60.12;99112.88;111095;1253;21967;-65
2024/03/25 09:40:46;;;;;;;4.70;4.20;;;;;;;9.95;60.60;99118.08;111137;1253;21999;-68
2024/03/25 09:43:25;;;;;;;6.00;4.90;;;;;;;10.11;60.16;99116.52;111103;1253;21973;-66
2024/03/25 09:45:55;;;;;;;5.60;5.00;;;;;;;10.12;59.48;99117.99;111152;1253;23673;-67
2024/03/25 09:48:25;;;;;;;5.30;4.80;;;;;;;10.03;59.01;99118.77;111085;1253;22804;-65
2024/03/25 09:50:55;;;;;;;6.00;5.40;;;;;;;9.83;59.28;99124.39;110936;1253;22190;-65
2024/03/25 09:53:24;;;;;;;9.50;5.90;;;;;;;9.62;59.64;99127.31;110976;1253;22007;-66
2024/03/25 09:55:55;;;;;;;7.30;6.70;;;;;;;9.43;60.20;99126.78;110970;1253;23766;-64
2024/03/25 09:58:25;;;;;;;6.90;6.20;;;;;;;9.35;60.54;99128.88;111048;1241;21957;-66
2024/03/25 10:00:55;;;;;;;6.40;5.80;;;;;;;9.35;60.84;99136.08;111109;1253;23606;-67
2024/03/25 10:03:24;;;;;;;6.40;5.80;;;;;;;9.39;60.66;99135.72;111133;1253;21920;-65
2024/03/25 10:05:53;;;;;;;7.80;6.00;;;;;;;9.42;60.56;99140.57;110537;1259;21997;-65
2024/03/25 10:08:23;;;;;;;6.10;5.50;;;;;;;9.40;59.79;99138.80;110572;1259;21964;-67
2024/03/25 10:10:52;;;;;;;5.40;4.90;;;;;;;9.36;59.55;99141.05;110593;1259;21964;-65
2024/03/25 10:13:23;;;;;;;5.80;5.20;;;;;;;9.32;59.01;99140.75;110608;1259;23021;-66
2024/03/25 10:15:51;;;;;;;6.10;5.50;;;;;;;9.28;58.98;99141.97;110651;1259;22848;-65
2024/03/25 10:18:21;;;;;;;7.30;6.10;;;;;;;9.22;59.35;99142.08;110610;1259;21976;-64
2024/03/25 10:20:51;;;;;;;8.30;7.50;;;;;;;9.19;60.18;99142.02;110599;1259;21962;-66
2024/03/25 10:23:25;;;;;;;8.00;7.20;;;;;;;9.16;60.67;99145.39;110609;1259;22815;-65
2024/03/25 10:25:55;;;;;;;7.00;6.40;;;;;;;9.09;60.67;99149.16;110611;1259;23577;-65
2024/03/25 10:28:24;;;;;;;8.10;7.40;;;;;;;8.98;60.97;99150.55;110629;1259;22909;-65
2024/03/25 10:30:53;;;;;;;7.10;6.50;;;;;;;8.92;61.23;99154.71;110837;1253;21956;-65
2024/03/25 10:33:22;;;;;;;7.30;6.60;;;;;;;8.91;61.61;99156.90;111272;1253;21965;-64
2024/03/25 10:35:52;;;;;;;5.70;5.10;;;;;;;8.94;61.52;99157.73;111178;1253;21969;-66
2024/03/25 10:38:24;;;;;;;6.00;5.50;;;;;;;8.93;61.49;99162.55;111112;1253;21943;-64
2024/03/25 10:40:54;;;;;;;;;;;;;;;8.93;61.44;99168.20;111169;1253;22734;-65
2024/03/25 10:43:27;;;;;;;6.50;5.20;;;;;;;8.69;62.14;99181.74;111114;1253;21962;-66
2024/03/25 10:45:58;;;;;;;5.70;3.90;;;;;;;8.44;62.72;99193.92;111148;1253;24317;-66
2024/03/25 10:48:31;;;;;;;4.50;3.60;;;;;;;8.17;62.32;99195.19;111061;1253;21970;-65
2024/03/25 10:51:03;;;;;;;3.00;2.40;;;;;;;7.90;62.44;99194.95;111121;1253;22309;-64
2024/03/25 10:53:35;;;;;;;4.00;3.50;;;;;;;7.68;62.70;99193.52;111115;1253;21998;-66
2024/03/25 10:56:05;;;;;;;6.10;5.50;;;;;;;7.57;63.56;99188.64;111193;1253;22737;-65
2024/03/25 10:58:35;;;;;;;9.80;6.80;;;;;;;7.52;64.47;99188.95;111023;1253;23009;-65
2024/03/25 11:01:05;;;;;;;6.50;5.80;;;;;;;7.51;64.52;99191.30;111103;1253;22150;-67
2024/03/25 11:03:35;;;;;;;6.50;5.80;;;;;;;7.49;64.71;99192.69;111085;1253;21940;-64
2024/03/25 11:06:05;;;;;;;7.30;6.60;;;;;;;7.47;65.16;99194.90;111153;1253;21954;-66
2024/03/25 11:08:34;;;;;;;9.70;8.20;;;;;;;7.46;65.20;99193.61;111116;1251;21953;-65
2024/03/25 11:11:03;;;;;;;9.30;8.40;;;;;;;7.46;65.78;99192.01;111160;1253;23285;-65
2024/03/25 11:13:32;;;;;;;10.00;9.00;;;;;;;7.55;66.10;99191.90;111129;1253;21952;-67
2024/03/25 11:16:01;;;;;;;10.80;9.70;;;;;;;7.72;66.32;99191.48;111008;1253;190498;-66
2024/03/25 11:18:33;;;;;;;11.20;9.40;;;;;;;7.94;66.40;99193.60;111139;1253;21959;-66
2024/03/25 11:21:11;;;;;;;11.00;7.50;;;;;;;8.13;66.49;99196.04;111152;1253;23042;-65
2024/03/25 11:23:47;;;;;;;8.30;6.70;;;;;;;8.35;66.47;99193.94;111112;1253;24750;-67
2024/03/25 11:26:27;;;;;;;10.10;6.20;;;;;;;8.56;66.33;99186.69;111224;1253;21957;-65
2024/03/25 11:28:56;;;;;;;6.80;6.00;;;;;;;8.74;65.94;99183.13;111240;1247;23071;-65
2024/03/25 11:31:27;;;;;;;6.70;6.10;;;;;;;8.83;65.16;99188.15;111117;1253;23021;-66
2024/03/25 11:33:57;;;;;;;5.70;4.90;;;;;;;8.83;64.24;99191.11;111155;1253;21961;-66
2024/03/25 11:36:28;;;;;;;6.90;5.50;;;;;;;8.79;63.69;99194.23;111145;1253;21955;-65
2024/03/25 11:39:04;;;;;;;8.50;7.70;;;;;;;8.80;63.85;99193.46;111171;1253;21967;-65
2024/03/25 11:41:33;;;;;;;7.80;7.10;;;;;;;8.92;64.37;99193.90;111176;1253;22497;-66
2024/03/25 11:44:02;;;;;;;9.30;8.50;;;;;;;9.08;63.55;99195.09;111167;1253;22450;-66
2024/03/25 11:46:31;;;;;;;6.10;5.50;;;;;;;9.22;63.21;99191.63;111093;1253;21948;-68